sensor_id;sensor_type;location;lat;lon;timestamp;pressure;altitude;pressure_sealevel;temperature;humidity
57568;BME280;43403;51.948;5.922;2023-03-01T00:01:27;103126.47;;;1.32;69.84
57568;BME280;43403;51.948;5.922;2023-03-01T00:03:54;103126.50;;;1.31;70.34
57568;BME280;43403;51.948;5.922;2023-03-01T00:06:21;103125.66;;;1.30;70.62
57568;BME280;43403;51.948;5.922;2023-03-01T00:08:48;103123.91;;;1.31;70.70
57568;BME280;43403;51.948;5.922;2023-03-01T00:11:15;103117.06;;;1.28;70.04
57568;BME280;43403;51.948;5.922;2023-03-01T00:13:43;103119.66;;;1.28;70.13
57568;BME280;43403;51.948;5.922;2023-03-01T00:16:11;103122.25;;;1.28;70.29
57568;BME280;43403;51.948;5.922;2023-03-01T00:18:39;103124.00;;;1.28;70.48
57568;BME280;43403;51.948;5.922;2023-03-01T00:21:05;103117.06;;;1.28;69.93
57568;BME280;43403;51.948;5.922;2023-03-01T00:23:33;103112.78;;;1.27;70.69
57568;BME280;43403;51.948;5.922;2023-03-01T00:26:00;103109.41;;;1.24;70.13
57568;BME280;43403;51.948;5.922;2023-03-01T00:28:26;103099.91;;;1.24;69.58
57568;BME280;43403;51.948;5.922;2023-03-01T00:30:53;103099.94;;;1.23;69.20
57568;BME280;43403;51.948;5.922;2023-03-01T00:33:19;103101.81;;;1.16;70.08
57568;BME280;43403;51.948;5.922;2023-03-01T00:35:45;103108.69;;;1.15;69.68
57568;BME280;43403;51.948;5.922;2023-03-01T00:38:12;103101.06;;;1.09;69.31
57568;BME280;43403;51.948;5.922;2023-03-01T00:40:38;103102.84;;;1.06;69.83
57568;BME280;43403;51.948;5.922;2023-03-01T00:43:05;103103.84;;;0.98;69.59
57568;BME280;43403;51.948;5.922;2023-03-01T00:45:32;103103.06;;;0.95;69.82
57568;BME280;43403;51.948;5.922;2023-03-01T00:47:58;103096.22;;;0.92;70.25
57568;BME280;43403;51.948;5.922;2023-03-01T00:50:25;103102.34;;;0.87;71.49
57568;BME280;43403;51.948;5.922;2023-03-01T00:52:52;103104.16;;;0.82;71.36
57568;BME280;43403;51.948;5.922;2023-03-01T00:55:18;103097.31;;;0.79;73.15
57568;BME280;43403;51.948;5.922;2023-03-01T00:57:45;103091.34;;;0.75;73.07
57568;BME280;43403;51.948;5.922;2023-03-01T01:00:11;103090.59;;;0.69;73.90
57568;BME280;43403;51.948;5.922;2023-03-01T01:02:38;103082.91;;;0.66;73.92
57568;BME280;43403;51.948;5.922;2023-03-01T01:05:04;103081.22;;;0.63;73.21
57568;BME280;43403;51.948;5.922;2023-03-01T01:07:31;103078.66;;;0.62;73.38
57568;BME280;43403;51.948;5.922;2023-03-01T01:09:58;103070.97;;;0.58;73.38
57568;BME280;43403;51.948;5.922;2023-03-01T01:12:24;103078.75;;;0.57;74.27
57568;BME280;43403;51.948;5.922;2023-03-01T01:14:50;103075.38;;;0.53;74.88
57568;BME280;43403;51.948;5.922;2023-03-01T01:17:17;103076.25;;;0.51;75.00
57568;BME280;43403;51.948;5.922;2023-03-01T01:19:43;103069.41;;;0.50;75.64
57568;BME280;43403;51.948;5.922;2023-03-01T01:22:10;103065.09;;;0.49;73.73
57568;BME280;43403;51.948;5.922;2023-03-01T01:24:36;103066.84;;;0.47;72.94
57568;BME280;43403;51.948;5.922;2023-03-01T01:27:02;103068.63;;;0.43;75.13
57568;BME280;43403;51.948;5.922;2023-03-01T01:29:29;103067.78;;;0.43;73.66
57568;BME280;43403;51.948;5.922;2023-03-01T01:31:55;103059.22;;;0.41;74.88
57568;BME280;43403;51.948;5.922;2023-03-01T01:34:21;103053.25;;;0.37;72.83
57568;BME280;43403;51.948;5.922;2023-03-01T01:36:49;103052.41;;;0.36;73.31
57568;BME280;43403;51.948;5.922;2023-03-01T01:39:15;103047.31;;;0.33;75.22
57568;BME280;43403;51.948;5.922;2023-03-01T01:41:42;103054.16;;;0.34;73.67
57568;BME280;43403;51.948;5.922;2023-03-01T01:44:19;103057.69;;;0.29;74.31
57568;BME280;43403;51.948;5.922;2023-03-01T01:47:00;103055.06;;;0.32;74.44
57568;BME280;43403;51.948;5.922;2023-03-01T01:49:37;103055.94;;;0.29;74.32
57568;BME280;43403;51.948;5.922;2023-03-01T01:52:47;103060.28;;;0.27;75.96
57568;BME280;43403;51.948;5.922;2023-03-01T01:55:07;103046.50;;;0.30;74.19
57568;BME280;43403;51.948;5.922;2023-03-01T01:57:39;103054.38;;;0.22;75.09
57568;BME280;43403;51.948;5.922;2023-03-01T02:00:07;103057.78;;;0.24;75.03
57568;BME280;43403;51.948;5.922;2023-03-01T02:02:35;103056.88;;;0.25;75.02
57568;BME280;43403;51.948;5.922;2023-03-01T02:05:09;103056.88;;;0.25;74.84
57568;BME280;43403;51.948;5.922;2023-03-01T02:07:38;103058.63;;;0.25;76.13
57568;BME280;43403;51.948;5.922;2023-03-01T02:10:05;103056.88;;;0.27;74.57
57568;BME280;43403;51.948;5.922;2023-03-01T02:12:31;103046.53;;;0.27;75.43
57568;BME280;43403;51.948;5.922;2023-03-01T02:14:58;103047.44;;;0.26;76.21
57568;BME280;43403;51.948;5.922;2023-03-01T02:17:24;103046.56;;;0.25;76.22
57568;BME280;43403;51.948;5.922;2023-03-01T02:22:33;103050.84;;;0.28;76.09
57568;BME280;43403;51.948;5.922;2023-03-01T02:27:29;103039.63;;;0.27;76.03
57568;BME280;43403;51.948;5.922;2023-03-01T02:29:59;103038.88;;;0.24;76.13
57568;BME280;43403;51.948;5.922;2023-03-01T02:32:25;103035.41;;;0.23;75.91
57568;BME280;43403;51.948;5.922;2023-03-01T02:34:53;103042.31;;;0.23;76.60
57568;BME280;43403;51.948;5.922;2023-03-01T02:37:19;103029.41;;;0.21;76.52
57568;BME280;43403;51.948;5.922;2023-03-01T02:39:53;103037.22;;;0.18;76.86
57568;BME280;43403;51.948;5.922;2023-03-01T02:42:21;103036.41;;;0.16;77.11
57568;BME280;43403;51.948;5.922;2023-03-01T02:44:52;103032.13;;;0.13;76.15
57568;BME280;43403;51.948;5.922;2023-03-01T02:47:19;103027.03;;;0.10;76.59
57568;BME280;43403;51.948;5.922;2023-03-01T02:49:46;103032.25;;;0.06;76.76
57568;BME280;43403;51.948;5.922;2023-03-01T02:54:43;103028.91;;;0.01;77.36
57568;BME280;43403;51.948;5.922;2023-03-01T02:57:13;103028.91;;;-0.01;77.60
57568;BME280;43403;51.948;5.922;2023-03-01T02:59:39;103029.84;;;-0.05;76.97
57568;BME280;43403;51.948;5.922;2023-03-01T03:02:07;103022.97;;;-0.06;77.49
57568;BME280;43403;51.948;5.922;2023-03-01T03:04:33;103022.09;;;-0.05;78.39
57568;BME280;43403;51.948;5.922;2023-03-01T03:06:59;103014.41;;;-0.08;76.82
57568;BME280;43403;51.948;5.922;2023-03-01T03:09:26;103012.69;;;-0.08;76.47
57568;BME280;43403;51.948;5.922;2023-03-01T03:11:52;103012.63;;;-0.06;75.80
57568;BME280;43403;51.948;5.922;2023-03-01T03:14:18;103008.38;;;-0.07;76.47
57568;BME280;43403;51.948;5.922;2023-03-01T03:16:46;103017.03;;;-0.10;77.91
57568;BME280;43403;51.948;5.922;2023-03-01T03:19:12;103019.63;;;-0.13;77.13
57568;BME280;43403;51.948;5.922;2023-03-01T03:21:39;103014.50;;;-0.14;77.13
57568;BME280;43403;51.948;5.922;2023-03-01T03:24:05;103016.16;;;-0.12;77.20
57568;BME280;43403;51.948;5.922;2023-03-01T03:26:32;103011.94;;;-0.16;78.87
57568;BME280;43403;51.948;5.922;2023-03-01T03:28:58;103002.59;;;-0.22;78.97
57568;BME280;43403;51.948;5.922;2023-03-01T03:31:25;103011.16;;;-0.21;77.49
57568;BME280;43403;51.948;5.922;2023-03-01T03:33:51;103012.03;;;-0.22;77.60
57568;BME280;43403;51.948;5.922;2023-03-01T03:36:18;103007.75;;;-0.23;78.43
57568;BME280;43403;51.948;5.922;2023-03-01T03:38:45;103002.63;;;-0.26;78.33
57568;BME280;43403;51.948;5.922;2023-03-01T03:41:12;103004.38;;;-0.27;78.11
57568;BME280;43403;51.948;5.922;2023-03-01T03:43:39;103010.34;;;-0.25;77.95
57568;BME280;43403;51.948;5.922;2023-03-01T03:46:06;103008.63;;;-0.26;79.89
57568;BME280;43403;51.948;5.922;2023-03-01T03:48:34;103000.88;;;-0.24;77.74
57568;BME280;43403;51.948;5.922;2023-03-01T03:51:00;103003.44;;;-0.23;77.53
57568;BME280;43403;51.948;5.922;2023-03-01T03:53:27;102997.44;;;-0.23;77.63
57568;BME280;43403;51.948;5.922;2023-03-01T03:55:54;103008.63;;;-0.26;78.24
57568;BME280;43403;51.948;5.922;2023-03-01T03:58:21;103001.88;;;-0.31;79.89
57568;BME280;43403;51.948;5.922;2023-03-01T04:00:49;102997.66;;;-0.37;79.95
57568;BME280;43403;51.948;5.922;2023-03-01T04:03:16;102999.34;;;-0.37;79.87
57568;BME280;43403;51.948;5.922;2023-03-01T04:05:45;102997.66;;;-0.38;80.95
57568;BME280;43403;51.948;5.922;2023-03-01T04:08:11;102998.56;;;-0.41;79.94
57568;BME280;43403;51.948;5.922;2023-03-01T04:10:42;102997.75;;;-0.45;80.28
57568;BME280;43403;51.948;5.922;2023-03-01T04:13:10;103001.19;;;-0.46;81.42
57568;BME280;43403;51.948;5.922;2023-03-01T04:15:37;102993.50;;;-0.49;81.13
57568;BME280;43403;51.948;5.922;2023-03-01T04:18:04;102995.22;;;-0.49;80.86
57568;BME280;43403;51.948;5.922;2023-03-01T04:20:32;102990.94;;;-0.50;78.94
57568;BME280;43403;51.948;5.922;2023-03-01T04:23:13;102989.28;;;-0.53;80.22
57568;BME280;43403;51.948;5.922;2023-03-01T04:25:45;102987.53;;;-0.52;80.98
57568;BME280;43403;51.948;5.922;2023-03-01T04:28:12;102984.97;;;-0.54;80.80
57568;BME280;43403;51.948;5.922;2023-03-01T04:30:38;102973.88;;;-0.59;81.34
57568;BME280;43403;51.948;5.922;2023-03-01T04:33:05;102973.03;;;-0.60;79.70
57568;BME280;43403;51.948;5.922;2023-03-01T04:35:32;102976.50;;;-0.62;80.46
57568;BME280;43403;51.948;5.922;2023-03-01T04:37:59;102985.09;;;-0.63;80.34
57568;BME280;43403;51.948;5.922;2023-03-01T04:40:25;102976.59;;;-0.68;79.50
57568;BME280;43403;51.948;5.922;2023-03-01T04:42:51;102977.41;;;-0.65;81.28
57568;BME280;43403;51.948;5.922;2023-03-01T04:45:18;102978.28;;;-0.67;81.89
57568;BME280;43403;51.948;5.922;2023-03-01T04:47:45;102974.88;;;-0.69;82.16
57568;BME280;43403;51.948;5.922;2023-03-01T04:50:13;102975.78;;;-0.73;83.38
57568;BME280;43403;51.948;5.922;2023-03-01T04:52:40;102972.31;;;-0.71;82.54
57568;BME280;43403;51.948;5.922;2023-03-01T04:55:07;102972.34;;;-0.72;81.63
57568;BME280;43403;51.948;5.922;2023-03-01T04:57:33;102969.78;;;-0.72;84.20
57568;BME280;43403;51.948;5.922;2023-03-01T05:00:00;102975.78;;;-0.70;82.19
57568;BME280;43403;51.948;5.922;2023-03-01T05:02:27;102964.56;;;-0.68;82.01
57568;BME280;43403;51.948;5.922;2023-03-01T05:04:53;102965.47;;;-0.70;81.25
57568;BME280;43403;51.948;5.922;2023-03-01T05:07:23;102961.16;;;-0.70;80.58
57568;BME280;43403;51.948;5.922;2023-03-01T05:09:50;102954.28;;;-0.71;81.86
57568;BME280;43403;51.948;5.922;2023-03-01T05:12:20;102952.50;;;-0.66;80.76
57568;BME280;43403;51.948;5.922;2023-03-01T05:14:46;102951.69;;;-0.69;80.78
57568;BME280;43403;51.948;5.922;2023-03-01T05:17:12;102949.09;;;-0.69;80.30
57568;BME280;43403;51.948;5.922;2023-03-01T05:19:39;102939.72;;;-0.73;80.66
57568;BME280;43403;51.948;5.922;2023-03-01T05:22:05;102939.72;;;-0.75;81.17
57568;BME280;43403;51.948;5.922;2023-03-01T05:24:35;102937.25;;;-0.81;82.98
57568;BME280;43403;51.948;5.922;2023-03-01T05:27:01;102927.81;;;-0.82;82.04
57568;BME280;43403;51.948;5.922;2023-03-01T05:29:28;102921.84;;;-0.84;82.24
57568;BME280;43403;51.948;5.922;2023-03-01T05:31:56;102922.69;;;-0.84;81.60
57568;BME280;43403;51.948;5.922;2023-03-01T05:34:24;102918.38;;;-0.83;82.42
57568;BME280;43403;51.948;5.922;2023-03-01T05:36:54;102928.69;;;-0.83;82.99
57568;BME280;43403;51.948;5.922;2023-03-01T05:39:21;102908.97;;;-0.86;82.55
57568;BME280;43403;51.948;5.922;2023-03-01T05:41:51;102908.97;;;-0.86;82.55
57568;BME280;43403;51.948;5.922;2023-03-01T05:44:19;102918.50;;;-0.92;82.63
57568;BME280;43403;51.948;5.922;2023-03-01T05:46:46;65435.88;;;-0.91;100.00
57568;BME280;43403;51.948;5.922;2023-03-01T05:49:13;65435.88;;;-145.50;100.00
57568;BME280;43403;51.948;5.922;2023-03-01T05:51:40;65435.88;;;-145.50;100.00
57568;BME280;43403;51.948;5.922;2023-03-01T05:54:07;65435.88;;;-145.50;100.00
57568;BME280;43403;51.948;5.922;2023-03-01T05:56:34;65435.88;;;-145.50;100.00
57568;BME280;43403;51.948;5.922;2023-03-01T05:59:02;65435.88;;;-145.50;100.00
57568;BME280;43403;51.948;5.922;2023-03-01T06:01:28;65435.88;;;-145.50;100.00
57568;BME280;43403;51.948;5.922;2023-03-01T06:03:55;65435.88;;;-145.50;100.00
57568;BME280;43403;51.948;5.922;2023-03-01T06:06:23;65435.88;;;-145.50;100.00
57568;BME280;43403;51.948;5.922;2023-03-01T06:08:50;65435.88;;;-145.50;100.00
57568;BME280;43403;51.948;5.922;2023-03-01T06:11:17;65435.88;;;-145.50;100.00
57568;BME280;43403;51.948;5.922;2023-03-01T06:13:43;65435.88;;;-145.50;100.00
57568;BME280;43403;51.948;5.922;2023-03-01T06:16:10;65435.88;;;-145.50;100.00
57568;BME280;43403;51.948;5.922;2023-03-01T06:18:37;65435.88;;;-145.50;100.00
57568;BME280;43403;51.948;5.922;2023-03-01T06:21:04;65435.88;;;-145.50;100.00
57568;BME280;43403;51.948;5.922;2023-03-01T06:23:30;65435.88;;;-145.50;100.00
57568;BME280;43403;51.948;5.922;2023-03-01T06:25:57;65435.88;;;-145.50;100.00
57568;BME280;43403;51.948;5.922;2023-03-01T06:28:23;65435.88;;;-145.50;100.00
57568;BME280;43403;51.948;5.922;2023-03-01T06:30:50;65435.88;;;-145.50;100.00
57568;BME280;43403;51.948;5.922;2023-03-01T06:33:18;65435.88;;;-145.50;100.00
57568;BME280;43403;51.948;5.922;2023-03-01T06:35:46;65435.88;;;-145.50;100.00
57568;BME280;43403;51.948;5.922;2023-03-01T06:38:12;65435.88;;;-145.50;100.00
57568;BME280;43403;51.948;5.922;2023-03-01T06:40:41;65435.88;;;-145.50;100.00
57568;BME280;43403;51.948;5.922;2023-03-01T06:43:07;65435.88;;;-145.50;100.00
57568;BME280;43403;51.948;5.922;2023-03-01T06:45:33;65435.88;;;-145.50;100.00
57568;BME280;43403;51.948;5.922;2023-03-01T06:48:03;65435.88;;;-145.50;100.00
57568;BME280;43403;51.948;5.922;2023-03-01T06:50:30;65435.88;;;-145.50;100.00
57568;BME280;43403;51.948;5.922;2023-03-01T06:52:57;65435.88;;;-145.50;100.00
57568;BME280;43403;51.948;5.922;2023-03-01T06:55:24;65435.88;;;-145.50;100.00
57568;BME280;43403;51.948;5.922;2023-03-01T06:57:54;65435.88;;;-145.50;100.00
57568;BME280;43403;51.948;5.922;2023-03-01T07:00:20;65435.88;;;-145.50;100.00
57568;BME280;43403;51.948;5.922;2023-03-01T07:02:47;65435.88;;;-145.50;100.00
57568;BME280;43403;51.948;5.922;2023-03-01T07:05:13;65435.88;;;-145.50;100.00
57568;BME280;43403;51.948;5.922;2023-03-01T07:07:39;65435.88;;;-145.50;100.00
57568;BME280;43403;51.948;5.922;2023-03-01T07:10:06;65435.88;;;-145.50;100.00
57568;BME280;43403;51.948;5.922;2023-03-01T07:12:32;65435.88;;;-145.50;100.00
57568;BME280;43403;51.948;5.922;2023-03-01T07:14:59;102915.06;;;-0.91;83.76
57568;BME280;43403;51.948;5.922;2023-03-01T07:17:25;102921.66;;;-0.72;89.37
57568;BME280;43403;51.948;5.922;2023-03-01T07:19:52;102922.50;;;-0.70;91.31
57568;BME280;43403;51.948;5.922;2023-03-01T07:22:18;102922.41;;;-0.67;91.77
57568;BME280;43403;51.948;5.922;2023-03-01T07:24:44;102914.63;;;-0.61;92.22
57568;BME280;43403;51.948;5.922;2023-03-01T07:27:10;102915.28;;;-0.49;92.76
57568;BME280;43403;51.948;5.922;2023-03-01T07:29:37;102921.25;;;-0.46;92.93
57568;BME280;43403;51.948;5.922;2023-03-01T07:32:04;102918.59;;;-0.40;93.93
57568;BME280;43403;51.948;5.922;2023-03-01T07:34:30;102922.81;;;-0.35;93.24
57568;BME280;43403;51.948;5.922;2023-03-01T07:36:57;102920.19;;;-0.31;93.00
57568;BME280;43403;51.948;5.922;2023-03-01T07:39:23;102921.00;;;-0.27;93.04
57568;BME280;43403;51.948;5.922;2023-03-01T07:41:50;102919.13;;;-0.19;91.88
57568;BME280;43403;51.948;5.922;2023-03-01T07:44:16;102919.03;;;-0.13;91.94
57568;BME280;43403;51.948;5.922;2023-03-01T07:46:43;102924.16;;;-0.11;93.35
57568;BME280;43403;51.948;5.922;2023-03-01T07:49:10;102924.03;;;-0.04;92.07
57568;BME280;43403;51.948;5.922;2023-03-01T07:51:36;102928.16;;;0.05;88.83
57568;BME280;43403;51.948;5.922;2023-03-01T07:54:03;102928.97;;;0.10;91.37
57568;BME280;43403;51.948;5.922;2023-03-01T07:56:29;102923.78;;;0.10;92.67
57568;BME280;43403;51.948;5.922;2023-03-01T07:58:56;102928.03;;;0.13;91.74
57568;BME280;43403;51.948;5.922;2023-03-01T08:01:22;102931.44;;;0.16;92.08
57568;BME280;43403;51.948;5.922;2023-03-01T08:03:49;102930.50;;;0.21;93.79
57568;BME280;43403;51.948;5.922;2023-03-01T08:06:16;102928.69;;;0.26;92.80
57568;BME280;43403;51.948;5.922;2023-03-01T08:08:42;102926.88;;;0.29;93.07
57568;BME280;43403;51.948;5.922;2023-03-01T08:11:12;102931.94;;;0.35;91.74
57568;BME280;43403;51.948;5.922;2023-03-01T08:13:39;102940.44;;;0.41;92.52
57568;BME280;43403;51.948;5.922;2023-03-01T08:16:08;102941.25;;;0.44;92.87
57568;BME280;43403;51.948;5.922;2023-03-01T08:18:34;102941.09;;;0.52;90.70
57568;BME280;43403;51.948;5.922;2023-03-01T08:21:02;102941.06;;;0.53;92.51
57568;BME280;43403;51.948;5.922;2023-03-01T08:23:29;102931.53;;;0.57;92.97
57568;BME280;43403;51.948;5.922;2023-03-01T08:26:02;102939.09;;;0.66;89.59
57568;BME280;43403;51.948;5.922;2023-03-01T08:28:29;102930.41;;;0.70;91.73
57568;BME280;43403;51.948;5.922;2023-03-01T08:30:55;102929.41;;;0.76;92.23
57568;BME280;43403;51.948;5.922;2023-03-01T08:33:22;102925.06;;;0.78;93.15
57568;BME280;43403;51.948;5.922;2023-03-01T08:35:48;102926.75;;;0.81;93.94
57568;BME280;43403;51.948;5.922;2023-03-01T08:38:15;102925.75;;;0.86;91.02
57568;BME280;43403;51.948;5.922;2023-03-01T08:40:41;102920.53;;;0.89;92.88
57568;BME280;43403;51.948;5.922;2023-03-01T08:43:07;102916.16;;;0.93;94.11
57568;BME280;43403;51.948;5.922;2023-03-01T08:45:34;102916.88;;;0.99;92.52
57568;BME280;43403;51.948;5.922;2023-03-01T08:48:00;102916.78;;;1.04;90.92
57568;BME280;43403;51.948;5.922;2023-03-01T08:50:27;102915.81;;;1.10;90.33
57568;BME280;43403;51.948;5.922;2023-03-01T08:52:53;102904.47;;;1.15;91.06
57568;BME280;43403;51.948;5.922;2023-03-01T08:55:19;102912.97;;;1.21;91.48
57568;BME280;43403;51.948;5.922;2023-03-01T08:57:46;102909.41;;;1.26;90.23
57568;BME280;43403;51.948;5.922;2023-03-01T09:00:12;102895.50;;;1.32;90.36
57568;BME280;43403;51.948;5.922;2023-03-01T09:02:41;102906.53;;;1.38;88.79
57568;BME280;43403;51.948;5.922;2023-03-01T09:05:07;102902.13;;;1.42;89.22
57568;BME280;43403;51.948;5.922;2023-03-01T09:07:34;102891.63;;;1.48;86.00
57568;BME280;43403;51.948;5.922;2023-03-01T09:10:00;102888.91;;;1.54;85.60
57568;BME280;43403;51.948;5.922;2023-03-01T09:12:26;102893.91;;;1.62;82.50
57568;BME280;43403;51.948;5.922;2023-03-01T09:14:53;102890.31;;;1.68;83.10
57568;BME280;43403;51.948;5.922;2023-03-01T09:17:19;102895.28;;;1.75;82.68
57568;BME280;43403;51.948;5.922;2023-03-01T09:19:47;102889.13;;;1.81;83.31
57568;BME280;43403;51.948;5.922;2023-03-01T09:22:14;102894.06;;;1.90;80.16
57568;BME280;43403;51.948;5.922;2023-03-01T09:24:41;102896.53;;;1.95;80.71
57568;BME280;43403;51.948;5.922;2023-03-01T09:27:07;102887.75;;;2.01;79.89
57568;BME280;43403;51.948;5.922;2023-03-01T09:29:36;102893.59;;;2.09;79.51
57568;BME280;43403;51.948;5.922;2023-03-01T09:32:03;102886.47;;;2.15;78.79
57568;BME280;43403;51.948;5.922;2023-03-01T09:34:29;102884.59;;;2.22;76.64
57568;BME280;43403;51.948;5.922;2023-03-01T09:36:57;102880.91;;;2.31;75.31
57568;BME280;43403;51.948;5.922;2023-03-01T09:39:23;102871.22;;;2.37;74.49
57568;BME280;43403;51.948;5.922;2023-03-01T09:41:54;102877.03;;;2.46;75.19
57568;BME280;43403;51.948;5.922;2023-03-01T09:44:38;102876.09;;;2.48;74.94
57568;BME280;43403;51.948;5.922;2023-03-01T09:47:16;102868.88;;;2.60;74.59
57568;BME280;43403;51.948;5.922;2023-03-01T09:49:43;102862.63;;;2.67;74.32
57568;BME280;43403;51.948;5.922;2023-03-01T09:52:19;102866.72;;;2.74;73.42
57568;BME280;43403;51.948;5.922;2023-03-01T09:54:48;102860.34;;;2.84;72.84
57568;BME280;43403;51.948;5.922;2023-03-01T09:57:20;102854.94;;;2.92;72.87
57568;BME280;43403;51.948;5.922;2023-03-01T09:59:58;102849.44;;;3.03;72.08
57568;BME280;43403;51.948;5.922;2023-03-01T10:02:33;102848.22;;;3.14;70.18
57568;BME280;43403;51.948;5.922;2023-03-01T10:05:15;102843.47;;;3.27;70.69
57568;BME280;43403;51.948;5.922;2023-03-01T10:10:28;102840.88;;;3.54;69.07
57568;BME280;43403;51.948;5.922;2023-03-01T10:12:58;102842.25;;;3.64;67.05
57568;BME280;43403;51.948;5.922;2023-03-01T10:15:34;102843.50;;;3.79;66.84
57568;BME280;43403;51.948;5.922;2023-03-01T10:18:06;102837.78;;;3.94;66.98
57568;BME280;43403;51.948;5.922;2023-03-01T10:20:44;102851.94;;;4.09;66.02
57568;BME280;43403;51.948;5.922;2023-03-01T10:23:12;102836.03;;;4.19;64.18
57568;BME280;43403;51.948;5.922;2023-03-01T10:25:44;102832.88;;;4.34;63.39
57568;BME280;43403;51.948;5.922;2023-03-01T10:28:16;102824.56;;;4.48;64.16
57568;BME280;43403;51.948;5.922;2023-03-01T10:30:43;102831.00;;;4.61;62.63
57568;BME280;43403;51.948;5.922;2023-03-01T10:33:17;102818.38;;;4.74;61.54
57568;BME280;43403;51.948;5.922;2023-03-01T10:35:46;102813.56;;;4.87;61.98
57568;BME280;43403;51.948;5.922;2023-03-01T10:38:14;102800.84;;;5.01;62.04
57568;BME280;43403;51.948;5.922;2023-03-01T10:40:52;102804.91;;;5.08;60.64
57568;BME280;43403;51.948;5.922;2023-03-01T10:43:19;102806.22;;;5.19;60.19
57568;BME280;43403;51.948;5.922;2023-03-01T10:45:46;102806.31;;;5.38;60.50
57568;BME280;43403;51.948;5.922;2023-03-01T10:48:19;102801.56;;;5.47;59.63
57568;BME280;43403;51.948;5.922;2023-03-01T10:50:48;102794.56;;;5.68;59.20
57568;BME280;43403;51.948;5.922;2023-03-01T10:53:22;102799.06;;;5.85;59.03
57568;BME280;43403;51.948;5.922;2023-03-01T10:56:10;102790.72;;;5.98;57.61
57568;BME280;43403;51.948;5.922;2023-03-01T10:58:38;102787.31;;;6.16;58.23
57568;BME280;43403;51.948;5.922;2023-03-01T11:03:43;102779.28;;;6.40;55.63
57568;BME280;43403;51.948;5.922;2023-03-01T11:08:45;102784.97;;;6.67;55.39
57568;BME280;43403;51.948;5.922;2023-03-01T11:14:06;102784.41;;;6.97;55.15
57568;BME280;43403;51.948;5.922;2023-03-01T11:16:57;102782.28;;;7.05;54.41
57568;BME280;43403;51.948;5.922;2023-03-01T11:19:24;102784.66;;;7.27;54.67
57568;BME280;43403;51.948;5.922;2023-03-01T11:24:29;102796.50;;;7.51;53.49
57568;BME280;43403;51.948;5.922;2023-03-01T11:26:56;102783.72;;;7.63;53.36
57568;BME280;43403;51.948;5.922;2023-03-01T11:31:59;102773.84;;;7.85;51.86
57568;BME280;43403;51.948;5.922;2023-03-01T11:37:11;102775.09;;;8.27;52.08
57568;BME280;43403;51.948;5.922;2023-03-01T11:39:43;102770.22;;;8.37;52.23
57568;BME280;43403;51.948;5.922;2023-03-01T11:45:00;102753.56;;;8.70;51.67
57568;BME280;43403;51.948;5.922;2023-03-01T11:50:26;102765.88;;;9.00;48.86
57568;BME280;43403;51.948;5.922;2023-03-01T11:55:36;102754.09;;;9.07;48.71
57568;BME280;43403;51.948;5.922;2023-03-01T12:08:59;102749.50;;;9.55;49.87
57568;BME280;43403;51.948;5.922;2023-03-01T12:11:39;102735.19;;;9.61;47.27
57568;BME280;43403;51.948;5.922;2023-03-01T12:14:13;102742.38;;;9.72;47.91
57568;BME280;43403;51.948;5.922;2023-03-01T12:16:56;102738.56;;;9.77;48.51
57568;BME280;43403;51.948;5.922;2023-03-01T12:22:28;102733.69;;;10.00;46.23
57568;BME280;43403;51.948;5.922;2023-03-01T12:35:32;102719.66;;;10.28;45.74
57568;BME280;43403;51.948;5.922;2023-03-01T12:40:51;102717.97;;;10.27;46.43
57568;BME280;43403;51.948;5.922;2023-03-01T12:43:24;102714.25;;;10.31;44.51
57568;BME280;43403;51.948;5.922;2023-03-01T12:48:41;102712.31;;;10.47;44.07
57568;BME280;43403;51.948;5.922;2023-03-01T12:51:11;102697.88;;;10.55;42.84
57568;BME280;43403;51.948;5.922;2023-03-01T12:53:41;102703.34;;;10.64;46.00
57568;BME280;43403;51.948;5.922;2023-03-01T12:56:10;102694.75;;;10.75;44.70
57568;BME280;43403;51.948;5.922;2023-03-01T13:04:02;102683.03;;;10.81;44.38
57568;BME280;43403;51.948;5.922;2023-03-01T13:06:37;102670.53;;;10.84;43.87
57568;BME280;43403;51.948;5.922;2023-03-01T13:11:44;102657.72;;;10.93;42.27
57568;BME280;43403;51.948;5.922;2023-03-01T13:16:50;102654.91;;;11.08;43.69
57568;BME280;43403;51.948;5.922;2023-03-01T13:19:24;102642.94;;;11.17;42.50
57568;BME280;43403;51.948;5.922;2023-03-01T13:21:51;102643.75;;;11.18;44.18
57568;BME280;43403;51.948;5.922;2023-03-01T13:29:54;102636.50;;;11.08;43.91
57568;BME280;43403;51.948;5.922;2023-03-01T13:32:22;102630.44;;;11.08;43.59
57568;BME280;43403;51.948;5.922;2023-03-01T13:37:48;102618.03;;;11.10;42.08
57568;BME280;43403;51.948;5.922;2023-03-01T13:42:47;102600.72;;;11.07;41.34
57568;BME280;43403;51.948;5.922;2023-03-01T13:48:02;102594.72;;;11.05;40.70
57568;BME280;43403;51.948;5.922;2023-03-01T13:50:29;102605.72;;;11.11;42.99
57568;BME280;43403;51.948;5.922;2023-03-01T13:52:59;102589.97;;;11.23;42.39
57568;BME280;43403;51.948;5.922;2023-03-01T13:55:29;102598.25;;;11.30;44.62
57568;BME280;43403;51.948;5.922;2023-03-01T13:57:59;102590.47;;;11.28;42.43
57568;BME280;43403;51.948;5.922;2023-03-01T14:03:00;102586.56;;;11.47;42.81
57568;BME280;43403;51.948;5.922;2023-03-01T14:05:32;102592.38;;;11.63;42.76
57568;BME280;43403;51.948;5.922;2023-03-01T14:07:58;102587.56;;;11.57;40.94
57568;BME280;43403;51.948;5.922;2023-03-01T14:10:25;102591.66;;;11.61;42.27
57568;BME280;43403;51.948;5.922;2023-03-01T14:16:24;102571.19;;;11.54;41.52
57568;BME280;43403;51.948;5.922;2023-03-01T14:18:39;102572.44;;;11.48;41.82
57568;BME280;43403;51.948;5.922;2023-03-01T14:21:15;102567.97;;;11.37;41.47
57568;BME280;43403;51.948;5.922;2023-03-01T14:23:42;102564.28;;;11.40;43.49
57568;BME280;43403;51.948;5.922;2023-03-01T14:26:09;102562.84;;;11.23;41.31
57568;BME280;43403;51.948;5.922;2023-03-01T14:28:38;102558.44;;;11.11;41.14
57568;BME280;43403;51.948;5.922;2023-03-01T14:34:20;102541.78;;;10.99;41.38
57568;BME280;43403;51.948;5.922;2023-03-01T14:36:46;102534.41;;;11.04;43.19